Terminal Aerodrome Forecast
Issued by NWS Mt. Holly, NJ

Home | Current Version | Previous Version | Text Only | Print | Product List | Glossary On
Versions: 1 2 3 4 5 6 7 8 9 10 11 12 13 14 15
247
FTUS41 KPHI 281139
TAFRDG
TAF
KRDG 281139Z 2812/2912 36003KT P6SM SCT200
     FM281400 07008KT P6SM BKN200
     FM281600 08010G18KT P6SM SCT040 BKN100
     FM281900 08013G22KT P6SM VCSH BKN025 OVC070
     FM290000 09012G21KT 6SM -SHRA OVC015
     FM290300 09010G19KT 4SM SHRA OVC012
      TEMPO 2904/2908 1 1/2SM +SHRA BKN009
     FM290900 10014G22KT 5SM -SHRA OVC009=

USA.gov is the U.S. government's official web portal to all federal, state and local government web resources and services.